Time;durP1;ratioP1;P1;durP2;ratioP2;P2;SDS_P1;SDS_P2;PMS_P1;PMS_P2;Temp;Humidity;BMP_temperature;BMP_pressure;BME280_temperature;BME280_humidity;BME280_pressure;Samples;Min_cycle;Max_cycle;Signal;HPM_P1;HPM_P2
2023/05/10 00:00:16;;;;;;;5.10;4.33;;;;;;;10.05;100.00;63998.91;5090933;28;20278;-61
2023/05/10 00:02:41;;;;;;;7.17;4.90;;;;;;;9.97;100.00;63990.69;5090507;28;20180;-61
2023/05/10 00:05:07;;;;;;;5.27;4.53;;;;;;;9.80;100.00;63971.53;5090756;28;20192;-60
2023/05/10 00:07:33;;;;;;;6.67;5.00;;;;;;;9.95;100.00;63987.97;5090849;28;20218;-57
2023/05/10 00:09:58;;;;;;;6.13;5.23;;;;;;;10.00;100.00;63991.47;5090463;28;20222;-59
2023/05/10 00:12:23;;;;;;;5.33;4.30;;;;;;;9.93;100.00;63986.31;5088119;28;20653;-59
2023/05/10 00:14:49;;;;;;;6.23;4.67;;;;;;;9.91;100.00;63981.63;5090386;28;20219;-60
2023/05/10 00:17:14;;;;;;;7.23;5.03;;;;;;;9.87;100.00;63976.69;5090691;28;20191;-59
2023/05/10 00:19:40;;;;;;;5.83;5.17;;;;;;;9.86;100.00;63978.09;5090490;28;20211;-60
2023/05/10 00:22:05;;;;;;;5.47;4.97;;;;;;;9.93;100.00;63986.31;5072274;28;20253;-58
2023/05/10 00:24:30;;;;;;;8.67;6.47;;;;;;;9.69;100.00;63960.06;5090299;28;20230;-58
2023/05/10 00:26:56;;;;;;;7.00;5.47;;;;;;;9.76;100.00;63967.72;5090594;28;20843;-58
2023/05/10 00:29:21;;;;;;;7.33;5.23;;;;;;;9.77;100.00;63968.81;5090310;28;20207;-56
2023/05/10 00:31:47;;;;;;;6.10;5.47;;;;;;;9.79;100.00;63971.00;5090406;28;20200;-61
2023/05/10 00:34:13;;;;;;;7.10;5.90;;;;;;;9.89;100.00;63981.94;5090232;28;20207;-61
2023/05/10 00:36:38;;;;;;;7.83;6.03;;;;;;;9.85;100.00;63977.56;5090316;28;20192;-61
2023/05/10 00:39:04;;;;;;;5.90;5.37;;;;;;;9.93;100.00;63985.78;5090064;28;20211;-58
2023/05/10 00:41:32;;;;;;;7.23;6.07;;;;;;;9.89;100.00;63978.88;5090101;28;20196;-58
2023/05/10 00:43:58;;;;;;;5.80;5.20;;;;;;;9.90;100.00;63980.50;5090223;28;20200;-57
2023/05/10 00:46:24;;;;;;;6.87;5.43;;;;;;;9.87;100.00;63979.75;5090566;28;20751;-58
2023/05/10 00:48:50;;;;;;;7.00;5.43;;;;;;;9.93;100.00;63986.31;5092993;28;20697;-58
2023/05/10 00:51:15;;;;;;;6.30;5.37;;;;;;;9.85;100.00;63977.03;5093962;28;20192;-57
2023/05/10 00:53:41;;;;;;;6.43;5.33;;;;;;;9.85;100.00;63975.06;5093642;28;20203;-58
2023/05/10 00:56:06;;;;;;;6.33;5.23;;;;;;;9.93;100.00;63983.25;5093668;28;20196;-57
2023/05/10 00:58:33;;;;;;;7.20;5.20;;;;;;;9.82;100.00;63971.78;5093666;28;20207;-57
2023/05/10 01:00:58;;;;;;;5.93;5.30;;;;;;;9.85;100.00;63977.03;5093726;28;20206;-57
2023/05/10 01:03:25;;;;;;;5.97;5.47;;;;;;;9.93;100.00;63986.31;5093360;28;20216;-59
2023/05/10 01:05:50;;;;;;;7.87;6.50;;;;;;;9.93;100.00;63983.81;5075051;28;20319;-59
2023/05/10 01:08:15;;;;;;;6.73;5.73;;;;;;;9.93;100.00;63986.31;5093604;28;20295;-59
2023/05/10 01:10:42;;;;;;;6.57;5.87;;;;;;;9.86;100.00;63978.09;5093688;28;20348;-59
2023/05/10 01:13:08;;;;;;;6.30;5.70;;;;;;;9.94;100.00;63987.41;5093263;28;20230;-61
2023/05/10 01:15:34;;;;;;;5.33;4.83;;;;;;;9.78;100.00;63969.91;5093178;28;20196;-59
2023/05/10 01:18:01;;;;;;;5.63;4.80;;;;;;;9.85;100.00;63975.06;5093233;28;20232;-59
2023/05/10 01:20:32;;;;;;;6.57;5.30;;;;;;;9.66;100.00;63956.78;5093285;28;20211;-61
2023/05/10 01:23:30;;;;;;;5.43;4.90;;;;;;;9.71;100.00;63959.75;5093193;28;20345;-60
2023/05/10 01:26:21;;;;;;;7.77;4.87;;;;;;;9.77;100.00;63968.28;5093053;28;20306;-59
2023/05/10 01:28:55;;;;;;;5.17;4.30;;;;;;;9.72;100.00;63962.78;5092968;28;20745;-58
2023/05/10 01:31:39;;;;;;;6.03;4.33;;;;;;;9.56;100.00;63945.84;5093285;28;20223;-61
2023/05/10 01:34:34;;;;;;;6.23;4.73;;;;;;;9.53;100.00;63942.03;5092789;28;20579;-59
2023/05/10 01:37:08;;;;;;;4.73;3.50;;;;;;;9.43;100.00;63931.09;5065967;28;20693;-57
2023/05/10 01:40:19;;;;;;;5.50;4.27;;;;;;;9.30;100.00;63917.44;5092893;28;20264;-58
2023/05/10 01:42:51;;;;;;;6.10;4.73;;;;;;;9.27;100.00;63911.66;5046366;28;20206;-59
2023/05/10 01:45:50;;;;;;;5.67;4.27;;;;;;;9.37;100.00;63927.59;5092728;28;20253;-58
2023/05/10 01:48:18;;;;;;;5.03;4.53;;;;;;;9.47;100.00;63935.47;5092830;28;20274;-56
2023/05/10 01:50:46;;;;;;;5.50;5.00;;;;;;;9.34;100.00;63919.28;5092616;28;20666;-60
2023/05/10 01:53:14;;;;;;;5.80;5.20;;;;;;;9.53;100.00;63939.50;5092600;28;20226;-57
2023/05/10 01:55:46;;;;;;;5.40;3.90;;;;;;;9.39;100.00;63929.78;5092687;28;20188;-58
2023/05/10 01:58:20;;;;;;;6.77;4.67;;;;;;;9.32;100.00;63922.13;5092426;28;20204;-58
2023/05/10 02:00:47;;;;;;;4.23;3.80;;;;;;;9.19;100.00;63902.91;5092472;28;20192;-58
2023/05/10 02:03:14;;;;;;;3.73;3.30;;;;;;;9.12;100.00;63897.75;5092809;28;20243;-59
2023/05/10 02:05:44;;;;;;;4.00;3.70;;;;;;;8.85;100.00;63868.22;5092616;28;20211;-58
2023/05/10 02:08:10;;;;;;;4.70;3.70;;;;;;;8.81;100.00;63864.41;5092271;28;20211;-60
2023/05/10 02:10:37;;;;;;;3.30;3.00;;;;;;;8.68;100.00;63849.66;5092721;28;20185;-59
2023/05/10 02:13:06;;;;;;;4.93;3.83;;;;;;;8.67;100.00;63849.13;5092307;28;20207;-59
2023/05/10 02:15:32;;;;;;;4.87;4.20;;;;;;;8.60;100.00;63840.94;5092619;28;20246;-59
2023/05/10 02:17:59;;;;;;;5.07;4.03;;;;;;;8.62;100.00;63840.59;5092734;28;20184;-60
2023/05/10 02:20:26;;;;;;;4.47;3.57;;;;;;;8.47;100.00;63827.28;5092582;28;20198;-57
2023/05/10 02:22:54;;;;;;;6.83;4.07;;;;;;;8.36;100.00;63815.81;5092214;28;20681;-60
2023/05/10 02:25:21;;;;;;;5.70;4.83;;;;;;;8.43;100.00;63822.91;5092136;28;20184;-58
2023/05/10 02:27:48;;;;;;;5.87;4.30;;;;;;;8.33;100.00;63812.53;5092141;28;20184;-58
2023/05/10 02:30:15;;;;;;;4.60;4.03;;;;;;;8.21;100.00;63799.41;5092215;28;20181;-58
2023/05/10 02:32:42;;;;;;;5.30;3.60;;;;;;;8.15;100.00;63792.84;5091963;28;20192;-59
2023/05/10 02:35:08;;;;;;;3.93;3.50;;;;;;;8.11;100.00;63785.44;5091997;28;20661;-56
2023/05/10 02:37:35;;;;;;;7.03;4.23;;;;;;;8.00;100.00;63771.47;5092001;28;20233;-58
2023/05/10 02:40:03;;;;;;;6.17;4.10;;;;;;;7.94;100.00;63769.91;5092170;28;20208;-59
2023/05/10 02:42:31;;;;;;;4.57;3.60;;;;;;;7.81;100.00;63755.75;5092197;28;20184;-59
2023/05/10 02:45:10;;;;;;;5.57;3.77;;;;;;;7.71;100.00;63744.81;5091714;28;20203;-56
2023/05/10 02:47:36;;;;;;;5.10;3.80;;;;;;;7.65;100.00;63738.28;5091665;28;20681;-57
2023/05/10 02:50:02;;;;;;;6.67;3.70;;;;;;;7.61;100.00;63734.44;5091581;28;20207;-58
2023/05/10 02:52:35;;;;;;;6.03;4.07;;;;;;;7.69;100.00;63740.13;5091847;28;20710;-58
2023/05/10 02:55:04;;;;;;;5.53;3.37;;;;;;;7.68;100.00;63741.53;5091805;28;20200;-57
2023/05/10 02:57:33;;;;;;;6.30;4.00;;;;;;;7.64;100.00;63737.19;5091707;28;20196;-59
2023/05/10 03:00:00;;;;;;;5.23;3.30;;;;;;;7.63;100.00;63736.09;5091552;28;20212;-61
2023/05/10 03:02:26;;;;;;;4.87;3.33;;;;;;;7.53;100.00;63725.72;5091278;28;20180;-60
2023/05/10 03:04:51;;;;;;;5.43;2.90;;;;;;;7.56;100.00;63725.94;5073523;28;20281;-59
2023/05/10 03:07:20;;;;;;;4.00;2.87;;;;;;;7.48;100.00;63719.72;5091688;28;20709;-56
2023/05/10 03:09:53;;;;;;;3.40;2.80;;;;;;;7.56;100.00;63728.44;5090897;28;20230;-60
2023/05/10 03:12:51;;;;;;;5.80;3.43;;;;;;;7.54;100.00;63726.81;5091440;28;20191;-61
2023/05/10 03:15:20;;;;;;;4.93;3.63;;;;;;;7.62;100.00;63737.50;5071666;28;20208;-62
2023/05/10 03:17:45;;;;;;;5.43;4.30;;;;;;;7.63;100.00;63734.13;5091218;28;20199;-60
2023/05/10 03:20:15;;;;;;;4.83;3.83;;;;;;;7.79;100.00;63753.56;5091207;28;20244;-60
2023/05/10 03:22:51;;;;;;;7.83;4.93;;;;;;;8.11;100.00;63785.44;5091199;28;20279;-61
2023/05/10 03:25:19;;;;;;;6.57;4.83;;;;;;;8.13;100.00;63787.63;5091199;28;20653;-57
2023/05/10 03:27:45;;;;;;;4.50;2.90;;;;;;;8.15;100.00;63790.34;5091146;28;20275;-57
2023/05/10 03:30:13;;;;;;;4.30;3.20;;;;;;;8.08;100.00;63785.22;5091291;28;20188;-57
2023/05/10 03:32:39;;;;;;;4.30;3.77;;;;;;;8.15;100.00;63792.84;5091290;28;20176;-61
2023/05/10 03:35:08;;;;;;;5.30;3.93;;;;;;;8.27;100.00;63808.50;5091479;28;20204;-60
2023/05/10 03:37:34;;;;;;;9.40;4.17;;;;;;;8.21;100.00;63796.34;5091148;28;20218;-58
2023/05/10 03:40:00;;;;;;;4.43;3.97;;;;;;;8.14;100.00;63788.72;5090899;28;20241;-61
2023/05/10 03:42:25;;;;;;;24.67;15.70;;;;;;;8.24;100.00;63802.69;5090305;28;20653;-61
2023/05/10 03:44:51;;;;;;;21.30;13.43;;;;;;;8.39;100.00;63819.09;5091064;28;20200;-61
2023/05/10 03:47:16;;;;;;;6.63;5.83;;;;;;;8.46;100.00;63824.22;5055995;28;20215;-61
2023/05/10 03:49:41;;;;;;;9.47;6.53;;;;;;;8.56;100.00;63837.13;5090963;28;20208;-57
2023/05/10 03:52:07;;;;;;;10.90;7.53;;;;;;;8.66;100.00;63847.50;5091051;28;20274;-57
2023/05/10 03:54:32;;;;;;;12.43;9.50;;;;;;;8.62;100.00;63843.66;5090727;28;20219;-57
2023/05/10 03:56:58;;;;;;;15.37;9.83;;;;;;;8.60;100.00;63844.00;5091195;28;20188;-57
2023/05/10 03:59:23;;;;;;;7.57;5.50;;;;;;;8.52;100.00;63832.19;5090803;28;20204;-61
2023/05/10 04:01:49;;;;;;;7.27;4.03;;;;;;;8.55;100.00;63833.50;5090979;28;20184;-57
2023/05/10 04:04:14;;;;;;;5.77;3.50;;;;;;;8.52;100.00;63832.75;5090681;28;20352;-59
2023/05/10 04:06:39;;;;;;;5.63;4.07;;;;;;;8.54;100.00;63832.41;5090624;28;20246;-57
2023/05/10 04:09:05;;;;;;;5.50;4.00;;;;;;;8.61;100.00;63839.50;5090638;28;20215;-61
2023/05/10 04:11:30;;;;;;;8.23;3.70;;;;;;;8.69;100.00;63851.31;5090691;28;20590;-61
2023/05/10 04:13:56;;;;;;;8.00;4.60;;;;;;;8.60;100.00;63840.94;5090520;28;20720;-61
2023/05/10 04:16:21;;;;;;;5.17;4.00;;;;;;;8.65;100.00;63846.38;5090504;28;20225;-61
2023/05/10 04:18:48;;;;;;;6.47;4.40;;;;;;;8.54;100.00;63834.94;5090288;28;20219;-61
2023/05/10 04:21:14;;;;;;;6.13;3.77;;;;;;;8.55;100.00;63837.97;5090543;28;20199;-58
2023/05/10 04:23:40;;;;;;;6.30;4.00;;;;;;;8.42;100.00;63822.34;5090495;28;20215;-58
2023/05/10 04:26:06;;;;;;;6.43;4.23;;;;;;;8.57;100.00;63837.66;5090240;28;20294;-61
2023/05/10 04:28:31;;;;;;;5.33;4.10;;;;;;;8.57;100.00;63835.13;5090525;28;20286;-60
2023/05/10 04:31:05;;;;;;;4.53;3.67;;;;;;;8.45;100.00;63822.56;5090465;28;20738;-63
2023/05/10 04:33:30;;;;;;;6.13;3.83;;;;;;;8.46;100.00;63829.22;5090495;28;20212;-58
2023/05/10 04:35:56;;;;;;;4.17;3.80;;;;;;;8.82;100.00;63865.53;5072215;28;20737;-57
2023/05/10 04:38:21;;;;;;;5.83;4.80;;;;;;;8.95;100.00;63876.66;5072017;28;20740;-57
2023/05/10 04:40:47;;;;;;;6.93;4.50;;;;;;;8.91;100.00;63872.28;5072104;28;20662;-58
2023/05/10 04:43:13;;;;;;;5.00;3.83;;;;;;;9.14;100.00;63899.94;5090224;28;20208;-60
2023/05/10 04:45:38;;;;;;;4.10;3.67;;;;;;;9.27;100.00;63911.66;5090516;28;20196;-61
2023/05/10 04:48:04;;;;;;;4.17;3.80;;;;;;;9.30;100.00;63917.44;5090336;28;20204;-58
2023/05/10 04:50:29;;;;;;;5.53;4.10;;;;;;;9.24;100.00;63911.41;5090380;28;20305;-58
2023/05/10 04:52:55;;;;;;;4.70;3.53;;;;;;;9.40;100.00;63923.31;5090483;28;20660;-57
2023/05/10 04:55:20;;;;;;;5.47;4.33;;;;;;;9.42;100.00;63927.47;5072112;28;20192;-61
2023/05/10 04:57:46;;;;;;;5.20;4.20;;;;;;;9.36;100.00;63923.44;5090094;28;20669;-61
2023/05/10 05:00:12;;;;;;;4.27;3.70;;;;;;;9.28;100.00;63910.22;5090075;28;20203;-57
2023/05/10 05:02:37;;;;;;;6.27;4.70;;;;;;;9.18;100.00;63902.34;5089973;28;20276;-61
2023/05/10 05:05:03;;;;;;;8.17;4.73;;;;;;;9.10;100.00;63893.59;5089841;28;20212;-61
2023/05/10 05:07:30;;;;;;;6.63;4.33;;;;;;;9.06;100.00;63891.19;5089937;28;20706;-60
2023/05/10 05:09:56;;;;;;;5.73;4.13;;;;;;;8.97;100.00;63883.84;5089874;28;20292;-57
2023/05/10 05:12:21;;;;;;;8.27;4.50;;;;;;;9.28;100.00;63912.72;5089927;28;20271;-60
2023/05/10 05:14:47;;;;;;;8.17;4.50;;;;;;;9.42;100.00;63924.97;5090060;28;20204;-58
2023/05/10 05:17:12;;;;;;;5.73;4.20;;;;;;;9.25;100.00;63910.00;5071679;28;20207;-58
2023/05/10 05:19:38;;;;;;;5.80;4.53;;;;;;;9.06;100.00;63891.19;5090045;28;20192;-58
2023/05/10 05:22:06;;;;;;;7.10;5.33;;;;;;;8.97;100.00;63881.34;5090143;28;20192;-57
2023/05/10 05:24:35;;;;;;;6.87;4.80;;;;;;;8.97;100.00;63879.38;5089945;28;20208;-58
2023/05/10 05:27:01;;;;;;;6.50;4.33;;;;;;;9.05;100.00;63890.13;5089941;28;20228;-56
2023/05/10 05:29:26;;;;;;;6.17;5.23;;;;;;;9.12;100.00;63895.25;5089777;28;20211;-56
2023/05/10 05:31:52;;;;;;;8.07;5.33;;;;;;;9.09;100.00;63891.97;5089916;28;20708;-57
2023/05/10 05:34:17;;;;;;;6.00;4.70;;;;;;;9.11;100.00;63897.19;5073162;28;20304;-57
2023/05/10 05:36:42;;;;;;;7.90;5.40;;;;;;;9.12;100.00;63895.78;5091837;28;20204;-58
2023/05/10 05:39:08;;;;;;;7.33;5.87;;;;;;;9.14;100.00;63897.41;5090535;28;20265;-57
2023/05/10 05:41:33;;;;;;;6.63;5.30;;;;;;;9.01;100.00;63885.72;5092104;28;20192;-58
2023/05/10 05:43:58;;;;;;;7.87;5.47;;;;;;;9.04;100.00;63889.00;5092379;28;20257;-57
2023/05/10 05:46:24;;;;;;;7.80;5.40;;;;;;;9.01;100.00;63885.72;5090981;28;20428;-61
2023/05/10 05:48:49;;;;;;;7.37;5.60;;;;;;;9.04;100.00;63889.00;5092199;28;20200;-60
2023/05/10 05:51:15;;;;;;;6.70;5.63;;;;;;;8.91;100.00;63874.78;5092029;28;20223;-62
2023/05/10 05:53:40;;;;;;;9.80;6.07;;;;;;;8.86;100.00;63869.34;5093182;28;20208;-60
2023/05/10 05:56:06;;;;;;;7.90;5.87;;;;;;;8.86;100.00;63864.88;5092713;28;20634;-61
2023/05/10 05:58:31;;;;;;;8.23;6.17;;;;;;;8.79;100.00;63862.22;5092212;28;20204;-60
2023/05/10 06:00:57;;;;;;;13.20;6.63;;;;;;;8.71;100.00;63853.50;5091908;28;20187;-61
2023/05/10 06:03:22;;;;;;;9.57;6.03;;;;;;;8.87;100.00;63870.41;5090702;28;20284;-61
2023/05/10 06:05:48;;;;;;;10.90;6.37;;;;;;;8.82;100.00;63865.53;5092603;28;20244;-60
2023/05/10 06:08:13;;;;;;;12.50;7.50;;;;;;;8.93;100.00;63876.97;5090906;28;20693;-58
2023/05/10 06:10:39;;;;;;;6.97;5.23;;;;;;;8.86;100.00;63869.34;5092082;28;20197;-58
2023/05/10 06:13:04;;;;;;;8.90;5.50;;;;;;;8.95;100.00;63879.16;5091706;28;20239;-58
2023/05/10 06:15:29;;;;;;;8.33;5.90;;;;;;;8.87;100.00;63870.41;5091977;28;20196;-58
2023/05/10 06:17:55;;;;;;;6.77;5.53;;;;;;;8.91;100.00;63872.28;5091469;28;20184;-58
2023/05/10 06:20:20;;;;;;;11.07;5.87;;;;;;;8.85;100.00;63868.78;5092284;28;20219;-57
2023/05/10 06:22:46;;;;;;;6.57;5.47;;;;;;;8.93;100.00;63872.50;5091399;28;20192;-58
2023/05/10 06:25:12;;;;;;;8.10;5.83;;;;;;;8.92;100.00;63873.38;5091981;28;20222;-58
2023/05/10 06:27:37;;;;;;;12.43;5.73;;;;;;;9.24;100.00;63910.88;5090120;28;20239;-58
2023/05/10 06:30:04;;;;;;;7.50;5.03;;;;;;;9.22;100.00;63906.72;5074090;28;20319;-59
2023/05/10 06:32:30;;;;;;;7.70;5.20;;;;;;;9.18;100.00;63904.31;5091246;28;20190;-58
2023/05/10 06:34:55;;;;;;;7.50;5.67;;;;;;;9.12;100.00;63898.31;5092008;28;20204;-58
2023/05/10 06:37:20;;;;;;;8.13;5.53;;;;;;;9.06;100.00;63888.69;5091941;28;20208;-59
2023/05/10 06:39:46;;;;;;;8.30;6.13;;;;;;;9.07;100.00;63892.81;5092492;28;20682;-58
2023/05/10 06:42:11;;;;;;;6.93;5.37;;;;;;;8.92;100.00;63875.91;5092342;28;20199;-59
2023/05/10 06:44:43;;;;;;;10.27;6.30;;;;;;;8.86;100.00;63869.34;5091608;28;20204;-58
2023/05/10 06:47:09;;;;;;;8.53;6.00;;;;;;;8.93;100.00;63876.97;5092218;28;20255;-58
2023/05/10 06:49:34;;;;;;;6.23;5.23;;;;;;;8.87;100.00;63870.97;5091990;28;20239;-59
2023/05/10 06:52:00;;;;;;;11.20;5.43;;;;;;;8.88;100.00;63871.53;5092331;28;20662;-61
2023/05/10 06:54:25;;;;;;;6.23;4.73;;;;;;;8.65;100.00;63844.41;5091520;28;20230;-61
2023/05/10 06:56:51;;;;;;;8.40;4.83;;;;;;;8.86;100.00;63866.81;5092935;28;20751;-59
2023/05/10 06:59:18;;;;;;;11.83;5.13;;;;;;;8.82;100.00;63864.97;5090890;28;20705;-57
2023/05/10 07:01:44;;;;;;;8.20;6.13;;;;;;;8.71;100.00;63850.44;5073018;28;20688;-60
2023/05/10 07:04:09;;;;;;;8.10;6.07;;;;;;;8.75;100.00;63854.78;5091607;28;20201;-61
2023/05/10 07:06:35;;;;;;;8.63;5.87;;;;;;;8.78;100.00;63858.09;5091481;28;20593;-61
2023/05/10 07:09:02;;;;;;;10.00;6.00;;;;;;;8.75;100.00;63857.84;5090220;28;20216;-60
2023/05/10 07:11:27;;;;;;;7.97;5.70;;;;;;;8.80;100.00;63862.78;5072816;28;20219;-61
2023/05/10 07:13:53;;;;;;;11.37;5.50;;;;;;;8.56;100.00;63836.56;5091375;28;20204;-61
2023/05/10 07:16:18;;;;;;;8.00;5.10;;;;;;;8.63;100.00;63842.25;5091531;28;20291;-61
2023/05/10 07:18:44;;;;;;;10.83;6.47;;;;;;;8.68;100.00;63844.66;5090457;28;20558;-60
2023/05/10 07:21:10;;;;;;;10.43;6.40;;;;;;;8.84;100.00;63867.16;5091718;28;20216;-61
2023/05/10 07:23:35;;;;;;;10.13;5.37;;;;;;;8.96;100.00;63882.78;5091859;28;20211;-61
2023/05/10 07:26:02;;;;;;;8.57;6.30;;;;;;;8.80;100.00;63863.34;5073215;28;20500;-60
2023/05/10 07:28:27;;;;;;;12.53;5.87;;;;;;;8.86;100.00;63867.38;5073420;28;20215;-61
2023/05/10 07:30:53;;;;;;;9.13;6.30;;;;;;;8.97;100.00;63878.84;5091281;28;20199;-61
2023/05/10 07:33:18;;;;;;;7.67;5.90;;;;;;;8.94;100.00;63878.63;5091187;28;20208;-60
2023/05/10 07:35:44;;;;;;;8.07;6.23;;;;;;;8.94;100.00;63875.56;5091898;28;20561;-60
2023/05/10 07:38:10;;;;;;;10.87;7.60;;;;;;;8.99;100.00;63883.53;5091657;28;20701;-60
2023/05/10 07:40:36;;;;;;;10.73;7.93;;;;;;;8.99;100.00;63883.53;5091418;28;20192;-58
2023/05/10 07:43:02;;;;;;;9.60;7.30;;;;;;;9.04;100.00;63889.00;5091231;28;20262;-59
2023/05/10 07:45:28;;;;;;;10.07;7.07;;;;;;;9.01;100.00;63885.72;5089873;28;20223;-58
2023/05/10 07:47:54;;;;;;;14.13;7.30;;;;;;;9.10;100.00;63893.06;5072964;28;20223;-58
2023/05/10 07:50:20;;;;;;;12.40;7.87;;;;;;;9.23;100.00;63910.31;5091010;28;20211;-59
2023/05/10 07:52:46;;;;;;;9.93;7.40;;;;;;;9.32;100.00;63917.66;5091253;28;20191;-58
2023/05/10 07:55:12;;;;;;;9.50;7.43;;;;;;;9.38;100.00;63923.09;5090767;28;20562;-60
2023/05/10 07:57:37;;;;;;;12.30;7.93;;;;;;;9.36;100.00;63921.47;5090343;28;20332;-58
2023/05/10 08:00:03;;;;;;;12.53;8.03;;;;;;;9.38;100.00;63925.63;5089721;28;20635;-58
2023/05/10 08:02:29;;;;;;;13.43;8.07;;;;;;;9.38;100.00;63923.09;5091098;28;20259;-59
2023/05/10 08:04:55;;;;;;;8.90;6.97;;;;;;;9.29;100.00;63916.88;5072402;28;20200;-58
2023/05/10 08:07:21;;;;;;;8.83;6.30;;;;;;;9.24;100.00;63910.88;5090685;28;20307;-58
2023/05/10 08:09:46;;;;;;;9.37;7.53;;;;;;;9.23;100.00;63907.81;5090791;28;20294;-57
2023/05/10 08:12:12;;;;;;;9.60;7.67;;;;;;;9.14;100.00;63894.91;5090370;28;20196;-59
2023/05/10 08:14:37;;;;;;;8.67;5.77;;;;;;;9.12;100.00;63895.78;5090223;28;20623;-59
2023/05/10 08:17:04;;;;;;;10.53;7.47;;;;;;;9.18;100.00;63904.31;5090435;28;20650;-60
2023/05/10 08:19:29;;;;;;;7.73;6.93;;;;;;;9.28;100.00;63915.25;5090127;28;20208;-57
2023/05/10 08:21:55;;;;;;;10.03;7.37;;;;;;;9.33;100.00;63921.25;5089620;28;20528;-57
2023/05/10 08:24:21;;;;;;;10.50;6.93;;;;;;;9.24;100.00;63908.34;5089101;28;20211;-59
2023/05/10 08:26:47;;;;;;;8.27;6.50;;;;;;;9.32;100.00;63919.63;5090869;28;20222;-60
2023/05/10 08:29:13;;;;;;;9.73;7.13;;;;;;;9.25;100.00;63911.97;5089637;28;20208;-58
2023/05/10 08:31:39;;;;;;;10.33;6.97;;;;;;;9.25;100.00;63912.50;5090866;28;20267;-59
2023/05/10 08:34:05;;;;;;;11.40;7.43;;;;;;;9.30;100.00;63917.44;5090323;28;20310;-58
2023/05/10 08:36:31;;;;;;;9.67;6.50;;;;;;;9.38;100.00;63923.09;5090485;28;20188;-59
2023/05/10 08:38:58;;;;;;;8.63;7.33;;;;;;;9.26;100.00;63913.59;5090494;28;20216;-59
2023/05/10 08:41:43;;;;;;;9.93;7.00;;;;;;;9.44;100.00;63930.22;5090247;28;20556;-59
2023/05/10 08:44:09;;;;;;;10.23;6.80;;;;;;;9.39;100.00;63926.72;5072003;28;20218;-60
2023/05/10 08:46:38;;;;;;;8.30;6.53;;;;;;;9.40;100.00;63925.28;5090568;28;20215;-61
2023/05/10 08:49:04;;;;;;;9.30;7.10;;;;;;;9.50;100.00;63939.28;5090154;28;20219;-60
2023/05/10 08:51:35;;;;;;;8.43;7.17;;;;;;;9.37;100.00;63924.53;5090356;28;20270;-59
2023/05/10 08:54:01;;;;;;;7.83;6.53;;;;;;;9.41;100.00;63929.47;5089542;28;20303;-61
2023/05/10 08:56:27;;;;;;;11.77;7.20;;;;;;;9.44;100.00;63932.72;5090194;28;20207;-60
2023/05/10 08:58:53;;;;;;;9.17;7.47;;;;;;;9.41;100.00;63926.94;5090154;28;20677;-60
2023/05/10 09:01:20;;;;;;;11.87;8.07;;;;;;;9.37;100.00;63922.03;5089249;28;20572;-60
2023/05/10 09:03:46;;;;;;;11.53;7.57;;;;;;;9.54;100.00;63940.59;5090196;28;20204;-60
2023/05/10 09:06:13;;;;;;;14.53;8.97;;;;;;;9.60;100.00;63949.66;5090203;28;20293;-61
2023/05/10 09:08:39;;;;;;;12.67;8.50;;;;;;;9.49;100.00;63938.22;5091169;28;20216;-57
2023/05/10 09:11:05;;;;;;;12.93;8.17;;;;;;;9.68;100.00;63956.47;5093465;28;20192;-57
2023/05/10 09:13:31;;;;;;;9.47;8.20;;;;;;;9.85;100.00;63974.50;5092848;28;20284;-59
2023/05/10 09:15:57;;;;;;;10.30;7.07;;;;;;;9.82;100.00;63974.28;5093099;28;20195;-57
2023/05/10 09:18:23;;;;;;;12.57;8.17;;;;;;;9.58;100.00;63945.53;5092720;28;20235;-58
2023/05/10 09:20:49;;;;;;;9.67;7.50;;;;;;;9.54;100.00;63943.66;5092664;28;20227;-56
2023/05/10 09:23:14;;;;;;;9.40;7.17;;;;;;;9.45;100.00;63931.31;5092307;28;20220;-57
2023/05/10 09:25:42;;;;;;;10.43;7.33;;;;;;;9.50;100.00;63934.25;5074947;28;20268;-55
2023/05/10 09:28:08;;;;;;;10.73;8.10;;;;;;;9.52;100.00;63938.97;5093084;28;20222;-57
2023/05/10 09:30:34;;;;;;;9.70;7.37;;;;;;;9.55;100.00;63944.22;5093241;28;20219;-57
2023/05/10 09:33:01;;;;;;;12.63;8.17;;;;;;;9.40;100.00;63928.34;5092812;28;20216;-58
2023/05/10 09:35:29;;;;;;;12.07;6.90;;;;;;;9.64;100.00;63954.59;5092863;28;20660;-58
2023/05/10 09:37:56;;;;;;;9.90;8.27;;;;;;;9.75;100.00;63963.56;5074597;28;20192;-56
2023/05/10 09:40:26;;;;;;;9.77;7.10;;;;;;;9.80;100.00;63972.09;5092788;28;20184;-57
2023/05/10 09:43:22;;;;;;;8.50;6.93;;;;;;;9.85;100.00;63977.03;5092554;28;20272;-58
2023/05/10 09:45:51;;;;;;;9.33;6.17;;;;;;;10.63;99.63;64057.34;5088503;28;20234;-58
2023/05/10 09:48:17;;;;;;;8.83;7.57;;;;;;;10.90;100.00;64091.41;5092357;28;20203;-57
2023/05/10 09:50:42;;;;;;;9.87;6.60;;;;;;;10.81;98.61;64079.03;5092568;28;20593;-57
2023/05/10 09:53:08;;;;;;;8.43;7.53;;;;;;;10.76;97.58;64076.09;5092232;28;20235;-58
2023/05/10 09:55:40;;;;;;;11.77;7.87;;;;;;;10.92;100.00;64088.56;5092715;28;20232;-59
2023/05/10 09:58:10;;;;;;;7.67;6.57;;;;;;;11.18;94.11;64122.06;5091900;28;20230;-57
2023/05/10 10:00:47;;;;;;;7.00;5.93;;;;;;;10.66;93.57;64065.13;5091981;28;20195;-56
2023/05/10 10:03:22;;;;;;;8.77;7.00;;;;;;;10.76;95.41;64073.56;5074844;28;20204;-58
2023/05/10 10:05:49;;;;;;;11.97;9.23;;;;;;;10.64;96.22;64063.50;5092663;28;20192;-57
2023/05/10 10:08:15;;;;;;;9.97;7.60;;;;;;;11.00;100.00;64099.84;5091799;28;20295;-60
2023/05/10 10:10:44;;;;;;;15.93;9.10;;;;;;;11.21;100.00;64127.88;5091115;28;20196;-60
2023/05/10 10:13:09;;;;;;;9.97;6.73;;;;;;;11.20;98.16;64124.25;5091150;28;20216;-60
2023/05/10 10:15:35;;;;;;;21.77;10.33;;;;;;;11.57;100.00;64164.78;5091444;28;20729;-61
2023/05/10 10:18:03;;;;;;;14.27;10.33;;;;;;;12.10;100.00;64216.75;5092356;28;20255;-58
2023/05/10 10:20:29;;;;;;;17.13;10.67;;;;;;;12.22;100.00;64230.44;5091929;28;20518;-59
2023/05/10 10:22:55;;;;;;;9.23;7.23;;;;;;;12.26;93.70;64239.34;5092012;28;20190;-59
2023/05/10 10:25:23;;;;;;;9.20;7.20;;;;;;;12.75;100.00;64290.56;5073927;28;20540;-58
2023/05/10 10:28:15;;;;;;;8.20;5.93;;;;;;;12.41;89.16;64253.25;5092163;28;20203;-57
2023/05/10 10:30:48;;;;;;;9.77;5.80;;;;;;;11.90;90.07;64197.38;5092248;28;20211;-61
2023/05/10 10:33:51;;;;;;;6.60;5.13;;;;;;;11.50;91.23;64154.03;5092293;28;20213;-60
2023/05/10 10:36:17;;;;;;;9.17;6.90;;;;;;;11.05;95.35;64107.81;5092281;28;20269;-58
2023/05/10 10:38:48;;;;;;;10.17;6.20;;;;;;;10.92;96.69;64091.06;5091883;28;20204;-57
2023/05/10 10:41:36;;;;;;;12.00;6.47;;;;;;;10.68;97.04;64062.28;5092243;28;20220;-57
2023/05/10 10:44:30;;;;;;;7.60;5.23;;;;;;;10.63;96.13;64062.38;5091585;28;20210;-55
2023/05/10 10:47:32;;;;;;;5.63;4.80;;;;;;;10.30;96.51;64023.75;5091888;28;20302;-57
2023/05/10 10:49:58;;;;;;;13.17;4.83;;;;;;;10.30;96.51;64023.22;5039250;28;20226;-58
2023/05/10 10:52:32;;;;;;;7.53;5.83;;;;;;;10.33;95.95;64029.56;5091982;28;20184;-59
2023/05/10 10:55:07;;;;;;;6.27;5.00;;;;;;;10.39;94.62;64036.13;5092002;28;20203;-60
2023/05/10 10:57:42;;;;;;;5.30;4.77;;;;;;;10.32;95.59;64025.97;5091937;28;20276;-57
2023/05/10 11:00:20;;;;;;;5.37;4.60;;;;;;;10.19;95.71;64011.72;5075055;28;20603;-56
2023/05/10 11:02:51;;;;;;;8.00;4.93;;;;;;;10.12;96.57;64004.59;5091656;28;20195;-59
2023/05/10 11:05:32;;;;;;;6.47;4.83;;;;;;;10.14;96.97;64009.31;5073471;28;20200;-59
2023/05/10 11:07:59;;;;;;;8.23;4.40;;;;;;;10.04;97.54;63997.78;5091469;28;20211;-59
2023/05/10 11:10:26;;;;;;;6.93;5.43;;;;;;;10.08;98.33;64002.72;5091318;28;20279;-61
2023/05/10 11:13:05;;;;;;;7.90;5.27;;;;;;;10.12;98.75;64002.09;5091370;28;20204;-56
2023/05/10 11:15:35;;;;;;;8.70;5.10;;;;;;;10.19;96.94;64014.25;5091501;28;20219;-58
2023/05/10 11:18:18;;;;;;;6.80;5.20;;;;;;;10.26;97.44;64018.84;5091756;28;20200;-55
2023/05/10 11:20:43;;;;;;;7.53;5.37;;;;;;;10.30;96.86;64020.69;5091605;28;20203;-59
2023/05/10 11:23:15;;;;;;;8.63;4.67;;;;;;;10.24;96.71;64016.66;5091433;28;20200;-56
2023/05/10 11:25:45;;;;;;;9.13;5.17;;;;;;;10.25;98.06;64017.72;5091512;28;20192;-55
2023/05/10 11:28:14;;;;;;;9.73;4.97;;;;;;;10.24;97.86;64019.69;5091092;28;20311;-58
2023/05/10 11:30:42;;;;;;;7.20;5.80;;;;;;;10.31;99.49;64026.81;5090987;28;20646;-57
2023/05/10 11:33:15;;;;;;;8.80;5.90;;;;;;;10.39;97.73;64033.06;5073044;28;20227;-55
2023/05/10 11:35:40;;;;;;;7.30;5.63;;;;;;;10.30;98.09;64023.22;5091494;28;20192;-57